EDT,Max TemperatureF,Mean TemperatureF,Min TemperatureF,Max Dew PointF,MeanDew PointF,Min DewpointF,Max Humidity, Mean Humidity, Min Humidity, Max Sea Level PressureIn, Mean Sea Level PressureIn, Min Sea Level PressureIn, Max VisibilityMiles, Mean VisibilityMiles, Min VisibilityMiles, Max Wind SpeedMPH, Mean Wind SpeedMPH, Max Gust SpeedMPH,PrecipitationIn, CloudCover, Events, WindDirDegrees
2013-4-1,78,66,53,64,53,34,100,71,21,30.01,29.94,29.88,10,8,2,12,2,17,0.00,4,Rain-Thunderstorm,300
2013-4-2,75,60,44,52,44,37,100,62,27,30.18,30.09,30.01,10,10,10,8,1,18,0.00,0,,330
2013-4-3,68,56,44,48,39,32,88,55,30,30.19,30.14,30.08,10,10,10,7,2,,0.00,3,Rain,65
2013-4-4,51,48,44,50,47,45,100,99,88,30.18,30.05,29.97,10,7,2,13,6,18,0.00,8,Rain,58
2013-4-5,62,52,42,50,45,43,100,85,52,30.06,29.99,29.93,10,10,10,8,4,,0.00,5,,16
2013-4-6,75,58,41,57,42,34,100,68,24,30.20,30.14,30.06,10,8,0,7,0,,0.00,2,Fog,106
2013-4-7,78,61,44,55,49,45,100,68,30,30.23,30.15,30.09,10,10,7,4,0,,0.00,1,,176
2013-4-8,82,66,51,63,55,52,100,74,35,30.18,30.12,30.07,10,9,1,5,0,,0.00,2,,210
2013-4-9,86,70,53,64,59,54,100,75,35,30.21,30.14,30.10,10,10,7,6,0,,0.00,1,,115
2013-4-10,86,72,59,68,59,54,100,75,33,30.15,30.07,29.96,10,9,2,4,0,,0.00,0,,153
2013-4-11,80,70,60,73,67,59,100,92,61,29.98,29.88,29.73,10,8,2,4,0,,0.00,4,Rain-Thunderstorm,170
2013-4-12,78,66,55,72,59,41,100,75,28,29.92,29.79,29.70,10,8,2,10,2,18,0.00,4,Rain-Thunderstorm,280
2013-4-13,78,62,46,50,44,34,93,59,20,30.04,29.98,29.94,10,10,10,7,2,,0.00,0,,314
2013-4-14,64,58,51,64,57,52,100,96,72,30.09,30.00,29.85,10,9,4,9,1,,0.00,4,Rain,103
2013-4-15,78,68,59,68,62,59,100,84,54,30.16,30.03,29.93,10,9,0,7,1,,0.00,6,Fog,95
2013-4-16,84,72,60,68,63,61,100,79,45,30.25,30.19,30.15,10,9,1,6,0,,0.00,3,,98
2013-4-17,86,74,62,68,64,61,100,75,43,30.24,30.17,30.11,10,10,10,5,0,,0.00,1,,72
2013-4-18,84,72,60,70,64,61,100,78,48,30.12,30.05,29.96,10,10,10,5,0,,0.00,3,,139
2013-4-19,78,64,51,72,65,52,100,95,69,30.05,29.92,29.86,10,9,1,7,1,,0.00,5,Rain-Thunderstorm,261
2013-4-20,68,55,42,52,40,34,100,61,28,30.23,30.15,30.04,10,10,10,10,5,,0.00,0,,315
2013-4-21,73,58,42,52,42,37,100,59,27,30.33,30.28,30.23,10,10,7,14,3,18,0.00,0,,90
2013-4-22,73,63,53,50,44,39,88,55,35,30.31,30.24,30.15,10,10,10,10,4,16,0.00,4,,65
2013-4-23,77,62,46,55,48,41,94,63,34,30.24,30.17,30.09,10,10,10,6,1,,0.00,0,,65
2013-4-24,80,66,53,64,58,54,100,80,44,30.17,30.13,30.07,10,9,2,5,1,,0.00,4,,236
2013-4-25,78,68,59,64,49,30,100,58,17,30.28,30.19,30.10,10,10,7,10,3,,0.00,4,,306
2013-4-26,80,62,44,57,45,36,93,55,30,30.37,30.30,30.26,10,10,10,8,1,,0.00,0,,71
2013-4-27,80,70,59,55,52,46,77,56,34,30.33,30.26,30.17,10,10,7,7,2,,0.00,3,,103
2013-4-28,80,70,59,70,61,55,100,84,54,30.17,30.09,29.98,10,9,2,7,1,,0.00,6,Rain-Thunderstorm,72
2013-4-29,71,66,60,70,64,61,100,98,78,30.07,30.01,29.95,10,7,1,5,0,,0.00,6,Rain-Thunderstorm,323
2013-4-30,80,68,57,70,61,55,100,80,42,30.11,30.03,29.97,10,6,0,6,1,,0.00,4,Fog,75